ADDS METAR Data

Data at: 0734 UTC 16 Jan 2018

METAR for:EGLF (Farnborough Arpt, --, UK)
Text:EGLF 160720Z 25013KT CAVOK 05/02 Q0996
Temperature: 5.0°C ( 41°F)
Dewpoint: 2.0°C ( 36°F) [RH = 81%]
Pressure (altimeter):29.41 inches Hg ( 996.0 mb)
Winds:from the WSW (250 degrees) at 15 MPH (13 knots; 6.7 m/s)
Visibility:6 or more sm (10+ km)
Ceiling:ceiling and visibility are OK
Clouds:unknown

TAF for:EGLF (Farnborough Arpt, --, UK)
Text:No data found

METAR for:EGUB (Benson(RAF), --, UK)
Text:EGUB 160650Z 25011KT CAVOK 05/01 Q0994 BLU TEMPO 6000 -SHRA SCT020 WHT
Temperature: 5.0°C ( 41°F)
Dewpoint: 1.0°C ( 34°F) [RH = 75%]
Pressure (altimeter):29.35 inches Hg ( 994.0 mb)
Winds:from the WSW (250 degrees) at 13 MPH (11 knots; 5.7 m/s)
Visibility:6 or more sm (10+ km)
Ceiling:ceiling and visibility are OK
Clouds:unknown

TAF for:EGUB (Benson(RAF), --, UK) issued at 0625 UTC 16 Jan 2018
Text:TAF EGUB 160625Z 1607/1615 27015G25KT 9999 FEW020
Forecast period:0700 to 1500 UTC 16 January 2018
Forecast type:FROM: standard forecast or significant change
Winds:from the W (270 degrees) at 17 MPH (15 knots; 7.7 m/s) gusting to 29 MPH (25 knots; 12.9 m/s)
Visibility:6 or more sm (10+ km)
Ceiling:at least 12,000 feet AGL
Clouds: few clouds at 2000 feet AGL
Text:PROB30
Forecast period:0700 to 1300 UTC 16 January 2018
Forecast type:TEMPORARY: The following changes expected for less than half the time period
Visibility: 4 sm ( 6 km)
Ceiling:at least 12,000 feet AGL
Clouds: scattered clouds at 2000 feet AGL
Weather:-SHRA (light rain showers)
Text:TEMPO 1607/1613 6000 -SHRA SCT020
Forecast period:1300 to 1500 UTC 16 January 2018
Forecast type:TEMPORARY: The following changes expected for less than half the time period
Visibility: 2.49 sm ( 4.01 km)
Ceiling:at least 12,000 feet AGL
Clouds: scattered clouds at 1200 feet AGL
Weather:SHRA (rain showers)

METAR for:EGVO (Odiham(RAF), --, UK)
Text:EGVO 160650Z 27018KT 9999 FEW020 BKN070 05/01 Q0995 BLU
Temperature: 5.0°C ( 41°F)
Dewpoint: 1.0°C ( 34°F) [RH = 75%]
Pressure (altimeter):29.38 inches Hg ( 995.0 mb)
Winds:from the W (270 degrees) at 21 MPH (18 knots; 9.3 m/s)
Visibility:6 or more sm (10+ km)
Ceiling:7000 feet AGL
Clouds: few clouds at 2000 feet AGL, broken clouds at 7000 feet AGL

TAF for:EGVO (Odiham(RAF), --, UK) issued at 0441 UTC 16 Jan 2018
Text:TAF EGVO 160441Z 1606/1618 27018G28KT 9999 FEW020
Forecast period:0600 to 1800 UTC 16 January 2018
Forecast type:FROM: standard forecast or significant change
Winds:from the W (270 degrees) at 21 MPH (18 knots; 9.3 m/s) gusting to 32 MPH (28 knots; 14.4 m/s)
Visibility:6 or more sm (10+ km)
Ceiling:at least 12,000 feet AGL
Clouds: few clouds at 2000 feet AGL
Text:PROB40
Forecast period:0600 to 1400 UTC 16 January 2018
Forecast type:TEMPORARY: The following changes expected for less than half the time period
Visibility: 4 sm ( 7 km)
Ceiling:at least 12,000 feet AGL
Clouds: scattered clouds at 2000 feet AGL
Weather:-SHRA (light rain showers)
Text:TEMPO 1606/1614 7000 -SHRA SCT020
Forecast period:1400 to 1800 UTC 16 January 2018
Forecast type:TEMPORARY: The following changes expected for less than half the time period
Visibility: 4 sm ( 7 km)
Ceiling:2000 feet AGL
Clouds: broken clouds at 2000 feet AGL
Weather:-SHRA (light rain showers)
Text:TEMPO 1614/1618 7000 -SHRA BKN020
Forecast period:1400 to 1800 UTC 16 January 2018
Forecast type:TEMPORARY: The following changes expected for less than half the time period
Visibility: 1.24 sm ( 2.00 km)
Ceiling:at least 12,000 feet AGL
Clouds: scattered clouds at 900 feet AGL
Weather:SHRA SHSN (rain showers, snow showers)

METAR for:EGTK (Oxford Arpt, --, UK)
Text:EGTK 160720Z 25012KT 9999 SCT041 04/00 Q0994
Temperature: 4.0°C ( 39°F)
Dewpoint: 0.0°C ( 32°F) [RH = 75%]
Pressure (altimeter):29.35 inches Hg ( 994.0 mb)
Winds:from the WSW (250 degrees) at 14 MPH (12 knots; 6.2 m/s)
Visibility:6 or more sm (10+ km)
Ceiling:at least 12,000 feet AGL
Clouds: scattered clouds at 4100 feet AGL

TAF for:EGTK (Oxford Arpt, --, UK) issued at 0658 UTC 16 Jan 2018
Text:TAF EGTK 160658Z 1606/1615 27012KT 9999 FEW012 SCT030
Forecast period:0600 to 0800 UTC 16 January 2018
Forecast type:FROM: standard forecast or significant change
Winds:from the W (270 degrees) at 14 MPH (12 knots; 6.2 m/s)
Visibility:6 or more sm (10+ km)
Ceiling:at least 12,000 feet AGL
Clouds: few clouds at 1200 feet AGL, scattered clouds at 3000 feet AGL
Text:PROB30
Forecast period:0600 to 1200 UTC 16 January 2018
Forecast type:TEMPORARY: The following changes expected for less than half the time period
Visibility: 4 sm ( 6 km)
Clouds:missing
Weather:SHRA (rain showers)
Text:TEMPO 1606/1612 6000 SHRA
Forecast period:0800 to 1500 UTC 16 January 2018
Forecast type:BECOMING: Conditions expected to become as follows by 1100 UTC 16 January 2018
Winds:from the W (280 degrees) at 17 MPH (15 knots; 7.7 m/s) gusting to 29 MPH (25 knots; 12.9 m/s)
Visibility:6 or more sm (10+ km)
Ceiling:at least 12,000 feet AGL
Clouds: few clouds at 1200 feet AGL, scattered clouds at 3000 feet AGL
Text:BECMG 1608/1611 28015G25KT
Forecast period:1100 to 1500 UTC 16 January 2018
Forecast type:TEMPORARY: The following changes expected for less than half the time period
Visibility: 2.49 sm ( 4.01 km)
Clouds:missing
Weather:SHRA SHSN (rain showers, snow showers)

METAR for:EGHH (Bournemouth Intl, --, UK)
Text:EGHH 160720Z 29012KT 9999 FEW020 05/03 Q0998 RERA
Temperature: 5.0°C ( 41°F)
Dewpoint: 3.0°C ( 37°F) [RH = 87%]
Pressure (altimeter):29.47 inches Hg ( 998.0 mb)
Winds:from the WNW (290 degrees) at 14 MPH (12 knots; 6.2 m/s)
Visibility:6 or more sm (10+ km)
Ceiling:at least 12,000 feet AGL
Clouds: few clouds at 2000 feet AGL

TAF for:EGHH (Bournemouth Intl, --, UK) issued at 0623 UTC 16 Jan 2018
Text:TAF EGHH 160623Z 1606/1615 27012KT 9999 SCT030
Forecast period:0600 to 1500 UTC 16 January 2018
Forecast type:FROM: standard forecast or significant change
Winds:from the W (270 degrees) at 14 MPH (12 knots; 6.2 m/s)
Visibility:6 or more sm (10+ km)
Ceiling:at least 12,000 feet AGL
Clouds: scattered clouds at 3000 feet AGL
Text:PROB40
Forecast period:0600 to 1500 UTC 16 January 2018
Forecast type:TEMPORARY: The following changes expected for less than half the time period
Winds:from the W (270 degrees) at 17 MPH (15 knots; 7.7 m/s) gusting to 29 MPH (25 knots; 12.9 m/s)
Visibility: 4 sm ( 6 km)
Clouds:missing
Weather:SHRA (rain showers)

METAR for:
Text:No data found

TAF for:
Text:No data found